Hauptseite
METAR-TAF:

METAR-TAF

Flughäfen :

Nassau, Bahamas

Flughafen Nassau Lynden Pindling

Breite: 25-03N, Länge: 077-28W, Höhe: 3 m

Beobachtung

Neuester Wetterbericht von vor 56 Minuten, um 23:00 UTC
Wind 13 kt aus Nordost, Böen bis zu 23 kt
Temperatur 23°C
Luftfeuchtigkeit 73%
Luftdruck 1022 hPa
Sichtweite 10 km oder mehr
Aufgelockert bewölkt in der Höhe von 1800 ft, Towering cumulus.
Aufgelockert bewölkt in der Höhe von 3000 ft

METAR: MYNN 242300Z 04013G23KT 9999 SCT018TCU SCT030 23/18 A3019 RMK TCU ALQDS

Zeit: 19:56 (23:56 UTC)

Prognose

Neuester Wetterbericht von vor 2 Stunden und 11 Minuten, um 21:45 UTC
Gültige Prognose vom 25 um 00 UTC bis 26 um 00 UTC
Wind 19 kt aus Nordost
Sichtweite 10 km oder mehr
Aufgelockert bewölkt in der Höhe von 1800 ft
Durchbrochene Bewölkung in der Höhe von 2500 ft

TAF: MYNN 242145Z 2500/2600 05019KT 9999 SCT018 BKN025

Wetterbeobachtungen und Prognosen von mehr als 4000 Flughäfen (METAR und TAF Bericht).

Die verfügbaren Stationen werden durch gelbe und rote Markierungen auf der Karte dargestellt.

Führen Sie die Maus auf sie, um den Namen der Station zu sehen.

Darauf klicken, um die Beobachtung von Wetterbeobachtungen und Prognosen zu sehen.

Um die Karte zu ändern : klicken Sie auf den grünen Tasten mit einem schwarzen Kreuz Zum Vergrößern, auf den grünen Button mit einem Gedankenstrich zu verkleinern, oder auf die grünen Pfeile für benachbarte Karten.


METAR-TAF: